Terminal Aerodrome Forecast
Issued by NWS Charleston, WV

Current Version | Previous Version | Text Only | Print | Product List | Glossary Off
Versions: 1 2 3 4 5 6 7 8 9 10 11 12 13 14 15 16 17 18 19 20

000
FTUS41 KRLX 271736
TAFEKN
TAF
KEKN 271736Z 2718/2818 33005KT P6SM BKN045
     FM272100 VRB03KT P6SM SCT045
     FM272300 00000KT P6SM SKC
     FM280700 00000KT 2SM BR SCT001
     FM280800 00000KT 1/4SM FG VV001
     FM281300 VRB03KT 2SM BR SCT005
     FM281400 VRB03KT P6SM SKC
     FM281600 VRB03KT P6SM SCT040=

USA.gov is the U.S. government's official web portal to all federal, state and local government web resources and services.